createdAt,value
2023-04-13T00:01:28.832Z,6.84
2023-04-13T00:04:03.188Z,6.80
2023-04-13T00:06:32.126Z,6.82
2023-04-13T00:09:01.030Z,6.89
2023-04-13T00:11:29.545Z,6.82
2023-04-13T00:13:59.455Z,6.84
2023-04-13T00:16:29.721Z,6.90
2023-04-13T00:18:58.093Z,6.78
2023-04-13T00:21:26.325Z,6.90
2023-04-13T00:23:54.552Z,6.87
2023-04-13T00:26:25.173Z,6.98
2023-04-13T00:28:53.415Z,7.04
2023-04-13T00:31:23.438Z,7.04
2023-04-13T00:33:51.745Z,7.07
2023-04-13T00:36:19.985Z,7.08
2023-04-13T00:38:50.621Z,7.04
2023-04-13T00:41:19.291Z,7.08
2023-04-13T00:43:49.518Z,7.07
2023-04-13T00:46:19.144Z,7.11
2023-04-13T00:48:49.868Z,7.13
2023-04-13T00:51:19.148Z,7.07
2023-04-13T00:53:49.674Z,7.01
2023-04-13T00:56:18.685Z,6.90
2023-04-13T00:58:46.931Z,6.88
2023-04-13T01:01:15.170Z,6.85
2023-04-13T01:03:43.694Z,6.82
2023-04-13T01:06:19.166Z,6.85
2023-04-13T01:08:51.364Z,6.81
2023-04-13T01:11:26.837Z,6.78
2023-04-13T01:14:01.330Z,6.86
2023-04-13T01:16:34.809Z,6.99
2023-04-13T01:19:07.478Z,6.94
2023-04-13T01:21:39.091Z,6.93
2023-04-13T01:24:19.682Z,6.93
2023-04-13T01:26:57.300Z,6.94
2023-04-13T01:29:28.489Z,6.91
2023-04-13T01:31:57.753Z,6.82
2023-04-13T01:34:26.687Z,6.89
2023-04-13T01:36:55.698Z,6.93
2023-04-13T01:39:32.012Z,6.90
2023-04-13T01:42:10.340Z,6.94
2023-04-13T01:44:41.313Z,6.91
2023-04-13T01:47:16.422Z,6.95
2023-04-13T01:50:03.903Z,6.85
2023-04-13T01:53:12.763Z,6.95
2023-04-13T01:55:45.669Z,6.99
2023-04-13T01:58:17.095Z,7.02
2023-04-13T02:00:54.551Z,7.03
2023-04-13T02:03:23.625Z,6.99
2023-04-13T02:05:52.081Z,7.04
2023-04-13T02:08:20.757Z,7.03
2023-04-13T02:10:49.334Z,7.03
2023-04-13T02:13:18.031Z,6.96
2023-04-13T02:15:46.593Z,7.05
2023-04-13T02:18:16.200Z,7.02
2023-04-13T02:20:44.556Z,7.02
2023-04-13T02:23:14.970Z,7.01
2023-04-13T02:25:47.936Z,7.01
2023-04-13T02:28:17.873Z,6.94
2023-04-13T02:30:48.138Z,6.87
2023-04-13T02:33:19.233Z,6.86
2023-04-13T02:35:48.857Z,6.88
2023-04-13T02:38:18.394Z,6.78
2023-04-13T02:40:55.555Z,6.81
2023-04-13T02:43:23.846Z,6.80
2023-04-13T02:45:52.855Z,6.68
2023-04-13T02:48:25.733Z,6.56
2023-04-13T02:50:55.934Z,6.56
2023-04-13T02:53:28.412Z,6.57
2023-04-13T02:56:02.281Z,6.51
2023-04-13T02:58:31.877Z,6.40
2023-04-13T03:01:04.732Z,6.42
2023-04-13T03:03:35.293Z,6.44
2023-04-13T03:06:03.628Z,6.40
2023-04-13T03:08:42.684Z,6.36
2023-04-13T03:11:23.914Z,6.31
2023-04-13T03:14:01.795Z,6.30
2023-04-13T03:16:33.152Z,6.20
2023-04-13T03:19:03.466Z,6.30
2023-04-13T03:21:34.443Z,6.31
2023-04-13T03:24:12.460Z,6.29
2023-04-13T03:26:41.322Z,6.27
2023-04-13T03:29:15.386Z,6.30
2023-04-13T03:31:46.695Z,6.28
2023-04-13T03:34:16.598Z,6.27
2023-04-13T03:36:47.608Z,6.20
2023-04-13T03:39:19.992Z,6.17
2023-04-13T03:41:48.509Z,6.10
2023-04-13T03:44:18.183Z,6.14
2023-04-13T03:46:46.554Z,6.16
2023-04-13T03:49:31.462Z,6.16
2023-04-13T03:52:00.315Z,6.02
2023-04-13T03:54:33.522Z,6.09
2023-04-13T03:57:04.564Z,6.10
2023-04-13T03:59:34.418Z,6.10
2023-04-13T04:02:04.004Z,5.92
2023-04-13T04:04:36.292Z,5.97
2023-04-13T04:07:05.104Z,6.00
2023-04-13T04:09:33.508Z,6.02
2023-04-13T04:12:01.741Z,6.01
2023-04-13T04:14:41.102Z,6.08
2023-04-13T04:17:16.058Z,6.21
2023-04-13T04:19:46.678Z,6.24
2023-04-13T04:22:16.826Z,6.21
2023-04-13T04:24:45.351Z,6.20
2023-04-13T04:27:14.516Z,6.20
2023-04-13T04:29:49.756Z,6.30
2023-04-13T04:32:33.866Z,6.42
2023-04-13T04:35:06.855Z,6.50
2023-04-13T04:37:42.157Z,6.49
2023-04-13T04:40:15.231Z,6.48
2023-04-13T04:42:44.135Z,6.55
2023-04-13T04:45:28.168Z,6.49
2023-04-13T04:47:59.327Z,6.48
2023-04-13T04:50:30.440Z,6.40
2023-04-13T04:53:10.012Z,6.40
2023-04-13T04:55:38.284Z,6.25
2023-04-13T04:58:06.953Z,6.29
2023-04-13T05:00:36.948Z,6.28
2023-04-13T05:03:14.727Z,6.33
2023-04-13T05:05:49.632Z,6.36
2023-04-13T05:08:24.425Z,6.41
2023-04-13T05:10:52.834Z,6.44
2023-04-13T05:13:21.759Z,6.51
2023-04-13T05:16:05.736Z,6.55
2023-04-13T05:18:45.292Z,6.64
2023-04-13T05:21:22.622Z,6.65
2023-04-13T05:23:57.694Z,6.74
2023-04-13T05:26:27.280Z,6.78
2023-04-13T05:28:55.810Z,6.82
2023-04-13T05:31:25.785Z,6.80
2023-04-13T05:33:54.109Z,6.81
2023-04-13T05:36:23.750Z,6.78
2023-04-13T05:38:52.088Z,6.86
2023-04-13T05:41:25.224Z,6.85
2023-04-13T05:43:53.473Z,6.99
2023-04-13T05:46:22.592Z,7.02
2023-04-13T05:48:52.051Z,7.09
2023-04-13T05:51:20.719Z,7.11
2023-04-13T05:53:50.382Z,7.15
2023-04-13T05:56:18.787Z,7.27
2023-04-13T05:58:47.374Z,7.35
2023-04-13T06:01:26.389Z,7.38
2023-04-13T06:03:56.061Z,7.37
2023-04-13T06:06:25.381Z,7.45
2023-04-13T06:08:55.226Z,7.43
2023-04-13T06:11:25.127Z,7.47
2023-04-13T06:13:53.455Z,7.50
2023-04-13T06:16:23.275Z,7.55
2023-04-13T06:18:52.262Z,7.69
2023-04-13T06:21:20.551Z,7.82
2023-04-13T06:23:50.617Z,7.85
2023-04-13T06:26:30.200Z,7.75
2023-04-13T06:28:58.867Z,7.85
2023-04-13T06:31:28.490Z,7.92
2023-04-13T06:34:00.415Z,7.93
2023-04-13T06:36:33.663Z,7.96
2023-04-13T06:39:03.992Z,8.04
2023-04-13T06:41:35.572Z,8.15
2023-04-13T06:44:27.204Z,8.09
2023-04-13T06:46:59.854Z,8.07
2023-04-13T06:49:33.761Z,8.09
2023-04-13T06:52:03.423Z,8.28
2023-04-13T06:54:31.868Z,8.24
2023-04-13T06:57:08.246Z,8.34
2023-04-13T06:59:37.668Z,8.41
2023-04-13T07:02:06.432Z,8.42
2023-04-13T07:04:34.894Z,8.42
2023-04-13T07:07:05.031Z,8.46
2023-04-13T07:09:33.664Z,8.48
2023-04-13T07:12:05.040Z,8.50
2023-04-13T07:14:36.067Z,8.67
2023-04-13T07:17:05.847Z,8.67
2023-04-13T07:19:35.759Z,8.67
2023-04-13T07:22:04.358Z,8.77
2023-04-13T07:24:36.034Z,8.83
2023-04-13T07:27:09.499Z,8.98
2023-04-13T07:29:39.373Z,9.07
2023-04-13T07:32:11.770Z,9.27
2023-04-13T07:34:41.203Z,9.23
2023-04-13T07:37:10.100Z,9.33
2023-04-13T07:39:38.434Z,9.24
2023-04-13T07:42:07.184Z,9.49
2023-04-13T07:44:42.415Z,9.57
2023-04-13T07:47:14.134Z,9.72
2023-04-13T07:49:44.781Z,9.68
2023-04-13T07:52:17.052Z,9.76
2023-04-13T07:54:45.674Z,9.90
2023-04-13T07:57:14.097Z,9.92
2023-04-13T07:59:51.892Z,9.80
2023-04-13T08:02:22.565Z,9.71
2023-04-13T08:04:53.783Z,9.96
2023-04-13T08:07:27.333Z,10.03
2023-04-13T08:09:55.725Z,10.04
2023-04-13T08:12:24.202Z,9.90
2023-04-13T08:14:55.538Z,10.50
2023-04-13T08:17:23.973Z,10.22
2023-04-13T08:19:52.613Z,10.08
2023-04-13T08:22:21.393Z,10.03
2023-04-13T08:24:49.647Z,10.22
2023-04-13T08:27:17.933Z,10.20
2023-04-13T08:29:47.036Z,10.50
2023-04-13T08:32:17.757Z,10.52
2023-04-13T08:34:46.177Z,10.96
2023-04-13T08:37:17.452Z,11.36
2023-04-13T08:39:48.374Z,11.16
2023-04-13T08:42:22.444Z,10.88
2023-04-13T08:44:53.513Z,10.54
2023-04-13T08:47:24.402Z,10.58
2023-04-13T08:49:54.357Z,10.53
2023-04-13T08:52:32.467Z,10.28
2023-04-13T08:55:02.394Z,10.44
2023-04-13T08:57:33.752Z,10.74
2023-04-13T09:00:16.628Z,10.67
2023-04-13T09:03:03.066Z,10.70
2023-04-13T09:05:39.486Z,10.90
2023-04-13T09:08:08.636Z,10.68
2023-04-13T09:10:41.168Z,10.53
2023-04-13T09:13:10.547Z,10.55
2023-04-13T09:15:38.972Z,10.70
2023-04-13T09:18:28.020Z,10.69
2023-04-13T09:21:03.219Z,10.93
2023-04-13T09:23:31.670Z,10.65
2023-04-13T09:26:07.604Z,10.74
2023-04-13T09:28:46.251Z,10.98
2023-04-13T09:31:15.816Z,10.99
2023-04-13T09:33:49.885Z,10.95
2023-04-13T09:36:19.642Z,10.57
2023-04-13T09:38:53.343Z,10.21
2023-04-13T09:41:32.809Z,10.66
2023-04-13T09:44:01.511Z,11.49
2023-04-13T09:46:30.156Z,12.01
2023-04-13T09:49:02.802Z,12.45
2023-04-13T09:51:38.506Z,12.61
2023-04-13T09:54:08.043Z,12.64
2023-04-13T09:56:48.263Z,13.16
2023-04-13T09:59:18.966Z,13.91
2023-04-13T10:01:47.566Z,13.39
2023-04-13T10:04:18.252Z,13.91
2023-04-13T10:06:46.948Z,14.10
2023-04-13T10:09:15.792Z,13.73
2023-04-13T10:11:47.656Z,13.24
2023-04-13T10:14:19.133Z,12.36
2023-04-13T10:17:08.436Z,12.47
2023-04-13T10:19:43.186Z,12.34
2023-04-13T10:22:12.648Z,13.48
2023-04-13T10:24:41.478Z,13.36
2023-04-13T10:27:14.827Z,12.69
2023-04-13T10:29:43.153Z,12.05
2023-04-13T10:32:22.002Z,12.31
2023-04-13T10:34:52.872Z,12.19
2023-04-13T10:37:23.495Z,11.94
2023-04-13T10:40:05.755Z,11.99
2023-04-13T10:42:51.885Z,13.21
2023-04-13T10:45:24.062Z,12.89
2023-04-13T10:47:52.975Z,13.55
2023-04-13T10:50:24.264Z,13.83
2023-04-13T10:53:00.167Z,12.91
2023-04-13T10:55:28.675Z,12.62
2023-04-13T10:57:57.476Z,13.82
2023-04-13T11:00:38.425Z,13.65
2023-04-13T11:03:15.268Z,12.99
2023-04-13T11:05:46.508Z,12.87
2023-04-13T11:08:20.701Z,13.33
2023-04-13T11:10:53.635Z,14.34
2023-04-13T11:13:22.457Z,14.50
2023-04-13T11:15:51.857Z,13.60
2023-04-13T11:18:26.780Z,13.00
2023-04-13T11:20:56.586Z,13.02
2023-04-13T11:23:25.457Z,13.74
2023-04-13T11:25:55.180Z,13.45
2023-04-13T11:28:24.194Z,14.30
2023-04-13T11:30:56.473Z,14.81
2023-04-13T11:33:30.033Z,14.91
2023-04-13T11:36:01.188Z,15.43
2023-04-13T11:38:29.696Z,15.31
2023-04-13T11:41:14.971Z,14.74
2023-04-13T11:43:48.394Z,13.93
2023-04-13T11:46:25.200Z,14.07
2023-04-13T11:48:54.354Z,14.78
2023-04-13T11:51:25.629Z,14.42
2023-04-13T11:53:54.623Z,14.79
2023-04-13T11:56:23.857Z,13.84
2023-04-13T11:58:53.319Z,13.39
2023-04-13T12:01:26.152Z,14.82
2023-04-13T12:04:13.982Z,15.08
2023-04-13T12:06:47.756Z,14.21
2023-04-13T12:09:17.650Z,14.62
2023-04-13T12:11:50.269Z,15.65
2023-04-13T12:19:27.581Z,15.91
2023-04-13T12:21:58.399Z,14.44
2023-04-13T12:24:37.860Z,13.73
2023-04-13T12:29:41.083Z,14.41
2023-04-13T12:32:14.700Z,14.74
2023-04-13T12:34:43.718Z,15.39
2023-04-13T12:37:13.382Z,15.60
2023-04-13T12:39:43.498Z,15.93
2023-04-13T12:42:12.246Z,16.07
2023-04-13T12:44:40.458Z,16.56
2023-04-13T12:47:08.978Z,16.12
2023-04-13T12:49:37.275Z,15.96
2023-04-13T12:52:05.705Z,15.76
2023-04-13T12:54:35.524Z,16.61
2023-04-13T12:57:03.822Z,16.61
2023-04-13T12:59:32.047Z,15.58
2023-04-13T13:02:00.375Z,16.03
2023-04-13T13:04:30.756Z,16.55
2023-04-13T13:07:00.534Z,16.44
2023-04-13T13:09:29.437Z,16.69
2023-04-13T13:11:59.113Z,16.49
2023-04-13T13:14:27.501Z,16.87
2023-04-13T13:16:55.910Z,16.76
2023-04-13T13:19:24.170Z,16.14
2023-04-13T13:21:52.403Z,16.75
2023-04-13T13:24:20.686Z,16.96
2023-04-13T13:27:17.058Z,16.58
2023-04-13T13:29:39.695Z,16.87
2023-04-13T13:32:08.095Z,16.47
2023-04-13T13:34:36.323Z,16.36
2023-04-13T13:37:05.576Z,14.62
2023-04-13T13:39:33.842Z,15.30
2023-04-13T13:42:03.495Z,15.07
2023-04-13T13:44:32.673Z,14.98
2023-04-13T13:47:04.198Z,15.80
2023-04-13T13:49:32.943Z,16.11
2023-04-13T13:52:14.972Z,16.56
2023-04-13T13:54:49.922Z,16.65
2023-04-13T13:57:18.373Z,15.87
2023-04-13T13:59:48.154Z,16.43
2023-04-13T14:02:20.494Z,16.92
2023-04-13T14:04:48.791Z,15.86
2023-04-13T14:07:17.057Z,14.44
2023-04-13T14:09:46.047Z,15.54
2023-04-13T14:12:14.272Z,15.69
2023-04-13T14:14:42.539Z,15.04
2023-04-13T14:17:10.879Z,14.36
2023-04-13T14:19:40.454Z,15.04
2023-04-13T14:22:08.785Z,15.15
2023-04-13T14:24:37.029Z,16.54
2023-04-13T14:27:05.297Z,16.55
2023-04-13T14:29:33.623Z,17.18
2023-04-13T14:32:01.958Z,16.66
2023-04-13T14:34:30.446Z,15.16
2023-04-13T14:37:00.610Z,14.48
2023-04-13T14:39:28.871Z,14.82
2023-04-13T14:41:57.073Z,14.89
2023-04-13T14:44:25.513Z,15.98
2023-04-13T14:46:53.773Z,16.88
2023-04-13T14:49:22.003Z,17.38
2023-04-13T14:51:50.244Z,17.43
2023-04-13T14:54:20.166Z,17.59
2023-04-13T14:56:48.675Z,17.93
2023-04-13T14:59:17.129Z,18.96
2023-04-13T15:01:45.420Z,18.85
2023-04-13T15:04:13.902Z,18.85
2023-04-13T15:06:42.182Z,18.44
2023-04-13T15:09:12.981Z,18.25
2023-04-13T15:11:42.698Z,17.87
2023-04-13T15:14:11.394Z,16.08
2023-04-13T15:16:39.653Z,15.37
2023-04-13T15:19:08.155Z,16.89
2023-04-13T15:21:36.500Z,17.67
2023-04-13T15:24:04.969Z,18.57
2023-04-13T15:26:39.542Z,18.55
2023-04-13T15:29:10.506Z,17.40
2023-04-13T15:31:39.839Z,17.61
2023-04-13T15:34:08.981Z,16.03
2023-04-13T15:36:37.424Z,17.53
2023-04-13T15:39:06.278Z,16.58
2023-04-13T15:41:34.582Z,15.49
2023-04-13T15:44:03.418Z,14.74
2023-04-13T15:46:33.759Z,14.65
2023-04-13T15:49:02.445Z,15.15
2023-04-13T15:51:32.011Z,15.36
2023-04-13T15:54:00.371Z,15.52
2023-04-13T15:56:29.427Z,16.43
2023-04-13T15:58:58.147Z,16.26
2023-04-13T16:01:27.513Z,16.43
2023-04-13T16:03:57.718Z,16.21
2023-04-13T16:06:26.226Z,15.96
2023-04-13T16:08:56.960Z,15.60
2023-04-13T16:11:28.429Z,15.30
2023-04-13T16:13:58.732Z,15.54
2023-04-13T16:16:27.607Z,15.37
2023-04-13T16:18:57.812Z,15.22
2023-04-13T16:21:28.268Z,15.21
2023-04-13T16:23:57.133Z,14.49
2023-04-13T16:26:25.388Z,14.78
2023-04-13T16:28:53.635Z,15.67
2023-04-13T16:31:21.929Z,15.70
2023-04-13T16:33:50.213Z,15.74
2023-04-13T16:36:19.835Z,16.03
2023-04-13T16:38:48.051Z,16.20
2023-04-13T16:41:16.880Z,16.54
2023-04-13T16:43:45.152Z,17.33
2023-04-13T16:46:14.332Z,18.05
2023-04-13T16:48:42.975Z,15.82
2023-04-13T16:51:11.351Z,15.96
2023-04-13T16:53:44.060Z,16.61
2023-04-13T16:56:14.685Z,16.59
2023-04-13T16:58:44.332Z,16.37
2023-04-13T17:01:13.645Z,15.18
2023-04-13T17:03:42.058Z,14.18
2023-04-13T17:06:10.516Z,13.64
2023-04-13T17:08:40.142Z,13.26
2023-04-13T17:11:08.540Z,12.96
2023-04-13T17:13:36.991Z,12.67
2023-04-13T17:16:05.608Z,12.45
2023-04-13T17:18:33.900Z,12.37
2023-04-13T17:21:02.189Z,12.05
2023-04-13T17:23:30.504Z,12.18
2023-04-13T17:26:00.136Z,12.10
2023-04-13T17:28:28.451Z,12.16
2023-04-13T17:30:56.661Z,11.89
2023-04-13T17:33:27.972Z,11.81
2023-04-13T17:35:56.447Z,11.63
2023-04-13T17:38:24.691Z,11.31
2023-04-13T17:40:52.921Z,11.37
2023-04-13T17:43:22.661Z,11.29
2023-04-13T17:45:51.030Z,11.23
2023-04-13T17:48:19.304Z,11.25
2023-04-13T17:50:47.622Z,11.29
2023-04-13T17:53:15.880Z,11.36
2023-04-13T17:55:44.116Z,11.27
2023-04-13T17:58:12.811Z,11.22
2023-04-13T18:00:42.394Z,11.16
2023-04-13T18:03:11.695Z,11.16
2023-04-13T18:05:44.410Z,11.23
2023-04-13T18:08:12.669Z,11.29
2023-04-13T18:10:40.869Z,11.34
2023-04-13T18:13:09.146Z,11.36
2023-04-13T18:15:37.417Z,11.29
2023-04-13T18:18:07.247Z,11.18
2023-04-13T18:20:35.498Z,10.67
2023-04-13T18:23:03.750Z,10.71
2023-04-13T18:25:32.657Z,10.65
2023-04-13T18:28:00.938Z,10.59
2023-04-13T18:30:29.307Z,10.67
2023-04-13T18:32:57.633Z,10.60
2023-04-13T18:35:27.589Z,10.49
2023-04-13T18:37:55.866Z,10.23
2023-04-13T18:40:24.337Z,10.15
2023-04-13T18:42:52.869Z,9.98
2023-04-13T18:45:21.308Z,9.79
2023-04-13T18:47:49.631Z,9.82
2023-04-13T18:50:17.878Z,9.54
2023-04-13T18:52:47.532Z,9.65
2023-04-13T18:55:16.483Z,9.68
2023-04-13T18:57:44.758Z,9.65
2023-04-13T19:00:14.913Z,9.68
2023-04-13T19:02:46.435Z,9.69
2023-04-13T19:05:15.403Z,9.80
2023-04-13T19:07:45.748Z,9.72
2023-04-13T19:10:15.856Z,9.66
2023-04-13T19:12:44.105Z,9.61
2023-04-13T19:15:12.818Z,9.53
2023-04-13T19:17:41.868Z,9.51
2023-04-13T19:20:11.084Z,9.31
2023-04-13T19:22:39.375Z,9.25
2023-04-13T19:25:14.133Z,9.06
2023-04-13T19:27:44.665Z,8.91
2023-04-13T19:30:13.836Z,8.98
2023-04-13T19:32:43.977Z,8.92
2023-04-13T19:35:12.949Z,8.90
2023-04-13T19:37:46.793Z,8.85
2023-04-13T19:40:15.437Z,8.80
2023-04-13T19:42:47.122Z,8.68
2023-04-13T19:45:16.598Z,8.68
2023-04-13T19:47:45.110Z,8.60
2023-04-13T19:50:15.412Z,8.59
2023-04-13T19:52:47.099Z,8.56
2023-04-13T19:55:15.544Z,8.58
2023-04-13T19:57:45.209Z,8.53
2023-04-13T20:00:22.421Z,8.48
2023-04-13T20:02:53.163Z,8.57
2023-04-13T20:05:22.499Z,8.49
2023-04-13T20:07:50.794Z,8.42
2023-04-13T20:10:19.121Z,8.39
2023-04-13T20:12:48.916Z,8.29
2023-04-13T20:15:17.226Z,8.34
2023-04-13T20:17:47.848Z,8.33
2023-04-13T20:20:16.626Z,8.36
2023-04-13T20:22:44.860Z,8.31
2023-04-13T20:25:13.347Z,8.27
2023-04-13T20:27:42.209Z,8.23
2023-04-13T20:30:13.015Z,8.14
2023-04-13T20:32:41.411Z,8.00
2023-04-13T20:35:10.917Z,8.12
2023-04-13T20:37:39.180Z,8.06
2023-04-13T20:40:11.163Z,8.15
2023-04-13T20:42:42.668Z,8.09
2023-04-13T20:45:14.938Z,7.99
2023-04-13T20:47:43.557Z,8.04
2023-04-13T20:50:13.310Z,8.02
2023-04-13T20:52:42.735Z,7.90
2023-04-13T20:55:11.704Z,7.83
2023-04-13T20:57:42.162Z,7.86
2023-04-13T21:00:15.485Z,7.81
2023-04-13T21:02:44.619Z,7.64
2023-04-13T21:05:13.003Z,7.73
2023-04-13T21:07:42.074Z,7.59
2023-04-13T21:10:12.153Z,7.65
2023-04-13T21:12:40.472Z,7.70
2023-04-13T21:15:10.119Z,7.57
2023-04-13T21:17:39.919Z,7.43
2023-04-13T21:20:09.793Z,7.48
2023-04-13T21:22:38.399Z,7.47
2023-04-13T21:25:07.502Z,7.50
2023-04-13T21:27:35.721Z,7.35
2023-04-13T21:30:04.339Z,7.31
2023-04-13T21:32:32.785Z,7.25
2023-04-13T21:35:02.773Z,7.24
2023-04-13T21:37:31.209Z,7.15
2023-04-13T21:39:59.594Z,7.07
2023-04-13T21:42:27.861Z,7.09
2023-04-13T21:44:57.132Z,7.08
2023-04-13T21:47:25.522Z,7.16
2023-04-13T21:49:53.819Z,7.16
2023-04-13T21:52:23.447Z,7.18
2023-04-13T21:54:51.924Z,7.07
2023-04-13T21:57:20.317Z,7.12
2023-04-13T21:59:48.616Z,7.11
2023-04-13T22:02:17.040Z,7.02
2023-04-13T22:04:45.381Z,6.99
2023-04-13T22:07:13.694Z,6.95
2023-04-13T22:09:43.379Z,7.02
2023-04-13T22:12:11.823Z,7.04
2023-04-13T22:14:40.177Z,6.90
2023-04-13T22:17:08.490Z,6.88
2023-04-13T22:19:36.736Z,6.91
2023-04-13T22:22:04.996Z,6.96
2023-04-13T22:24:33.307Z,6.91
2023-04-13T22:27:04.688Z,7.10
2023-04-13T22:29:33.105Z,7.01
2023-04-13T22:32:01.654Z,7.04
2023-04-13T22:34:29.873Z,7.07
2023-04-13T22:36:58.066Z,7.00
2023-04-13T22:39:26.590Z,6.97
2023-04-13T22:41:54.943Z,6.93
2023-04-13T22:44:24.688Z,6.94
2023-04-13T22:46:55.443Z,6.93
2023-04-13T22:49:24.047Z,6.89
2023-04-13T22:51:52.319Z,6.86
2023-04-13T22:54:20.642Z,6.90
2023-04-13T22:56:48.871Z,6.73
2023-04-13T22:59:17.338Z,6.81
2023-04-13T23:01:47.338Z,6.70
2023-04-13T23:04:16.422Z,6.79
2023-04-13T23:06:44.748Z,6.75
2023-04-13T23:09:12.984Z,6.72
2023-04-13T23:11:41.281Z,6.59
2023-04-13T23:14:09.805Z,6.49
2023-04-13T23:16:38.223Z,6.59
2023-04-13T23:19:07.942Z,6.60
2023-04-13T23:21:36.163Z,6.63
2023-04-13T23:24:04.543Z,6.57
2023-04-13T23:26:32.804Z,6.54
2023-04-13T23:29:01.608Z,6.43
2023-04-13T23:31:30.620Z,6.36
2023-04-13T23:33:58.882Z,6.36
2023-04-13T23:36:28.586Z,6.16
2023-04-13T23:38:56.963Z,6.28
2023-04-13T23:41:25.222Z,6.28
2023-04-13T23:43:53.645Z,6.23
2023-04-13T23:46:22.576Z,6.20
2023-04-13T23:48:51.165Z,6.26
2023-04-13T23:51:19.381Z,6.19
2023-04-13T23:53:49.001Z,6.23
2023-04-13T23:56:17.514Z,6.07
2023-04-13T23:58:45.750Z,6.24
